Time;durP1;ratioP1;P1;durP2;ratioP2;P2;SDS_P1;SDS_P2;PMS_P1;PMS_P2;Temp;Humidity;BMP_temperature;BMP_pressure;BME280_temperature;BME280_humidity;BME280_pressure;Samples;Min_cycle;Max_cycle;Signal;HPM_P1;HPM_P2
2024/03/18 00:04:53;;;;;;;9.15;7.65;;;12.40;84.10;;;;;;10304458;28;20254;-63
2024/03/18 00:09:56;;;;;;;8.77;7.57;;;12.40;84.20;;;;;;10301750;28;20300;-64
2024/03/18 00:15:00;;;;;;;10.82;8.77;;;12.30;84.00;;;;;;10298465;28;20779;-63
2024/03/18 00:20:05;;;;;;;12.57;8.95;;;12.30;85.10;;;;;;10302608;28;20230;-63
2024/03/18 00:25:09;;;;;;;14.35;10.45;;;12.30;85.70;;;;;;10298669;28;20260;-66
2024/03/18 00:30:14;;;;;;;14.32;10.20;;;12.30;86.20;;;;;;10299932;28;20237;-65
2024/03/18 00:35:17;;;;;;;14.85;10.07;;;12.30;87.20;;;;;;10298465;28;20325;-63
2024/03/18 00:40:20;;;;;;;11.85;10.18;;;12.20;86.60;;;;;;10299287;28;20234;-62
2024/03/18 00:45:24;;;;;;;11.70;9.98;;;12.20;86.70;;;;;;10300102;28;20343;-65
2024/03/18 00:50:27;;;;;;;13.93;9.65;;;12.20;86.90;;;;;;10300518;28;20263;-65
2024/03/18 00:55:29;;;;;;;12.35;10.52;;;12.10;87.00;;;;;;10296543;28;20309;-63
2024/03/18 01:00:33;;;;;;;14.63;11.35;;;12.10;87.00;;;;;;10295871;28;21851;-64
2024/03/18 01:05:36;;;;;;;14.77;12.65;;;12.10;88.30;;;;;;10295404;28;20979;-63
2024/03/18 01:10:38;;;;;;;15.43;13.10;;;12.00;87.20;;;;;;10295596;28;20296;-65
2024/03/18 01:15:42;;;;;;;17.33;14.27;;;12.00;87.20;;;;;;10299797;28;20269;-64
2024/03/18 01:20:45;;;;;;;15.88;13.77;;;12.00;87.80;;;;;;10296394;28;20238;-64
2024/03/18 01:25:47;;;;;;;18.30;13.55;;;12.00;88.10;;;;;;10298007;28;20798;-65
2024/03/18 01:30:53;;;;;;;13.35;11.82;;;12.00;89.20;;;;;;10308766;28;20238;-63
2024/03/18 01:35:55;;;;;;;12.88;11.20;;;12.00;89.10;;;;;;10315684;28;20194;-65
2024/03/18 01:40:58;;;;;;;13.45;10.93;;;12.00;89.00;;;;;;10313040;28;20283;-62
2024/03/18 01:46:02;;;;;;;14.68;11.15;;;11.90;90.00;;;;;;10303851;28;20249;-65
2024/03/18 01:51:05;;;;;;;15.27;11.13;;;11.90;90.20;;;;;;10306536;28;20852;-64
2024/03/18 01:56:09;;;;;;;11.95;10.65;;;11.90;89.60;;;;;;10308626;28;20328;-65
2024/03/18 02:01:15;;;;;;;13.65;11.27;;;11.90;89.90;;;;;;10309036;28;20249;-65
2024/03/18 02:06:17;;;;;;;13.48;11.25;;;11.80;90.10;;;;;;10316234;28;20729;-62
2024/03/18 02:11:20;;;;;;;15.27;11.50;;;11.80;90.20;;;;;;10313222;28;20258;-64
2024/03/18 02:16:24;;;;;;;12.27;10.55;;;11.80;90.10;;;;;;10314393;28;20268;-64
2024/03/18 02:21:27;;;;;;;12.77;10.27;;;11.80;90.40;;;;;;10310693;28;20257;-64
2024/03/18 02:26:33;;;;;;;13.82;10.88;;;11.90;90.20;;;;;;10310385;28;20291;-66
2024/03/18 02:31:36;;;;;;;17.17;11.48;;;11.90;90.40;;;;;;10310145;28;20261;-65
2024/03/18 02:36:38;;;;;;;13.70;10.30;;;11.80;90.50;;;;;;10321024;28;20276;-66
2024/03/18 02:41:42;;;;;;;13.48;10.77;;;11.80;91.00;;;;;;10301322;28;20246;-63
2024/03/18 02:46:45;;;;;;;15.35;12.23;;;11.80;91.30;;;;;;10298318;28;20815;-64
2024/03/18 02:51:48;;;;;;;16.45;12.45;;;11.80;90.90;;;;;;10295864;28;20802;-63
2024/03/18 02:56:52;;;;;;;15.02;12.25;;;11.80;91.10;;;;;;10298235;28;20225;-64
2024/03/18 03:01:54;;;;;;;14.10;10.98;;;11.80;91.00;;;;;;10301112;28;20949;-63
2024/03/18 03:06:57;;;;;;;12.63;10.02;;;11.80;91.20;;;;;;10297939;28;20297;-65
2024/03/18 03:12:01;;;;;;;10.07;9.05;;;11.80;91.40;;;;;;10303205;28;20257;-64
2024/03/18 03:17:04;;;;;;;10.75;8.80;;;11.80;91.40;;;;;;10303431;28;20229;-64
2024/03/18 03:22:07;;;;;;;12.38;9.65;;;11.80;91.40;;;;;;10299777;28;20289;-63
2024/03/18 03:27:10;;;;;;;11.65;9.13;;;11.80;91.60;;;;;;10290131;28;20257;-64
2024/03/18 03:32:15;;;;;;;10.50;8.60;;;11.80;91.80;;;;;;10199034;28;20319;-63
2024/03/18 03:37:18;;;;;;;11.15;8.57;;;11.80;91.90;;;;;;10198114;28;20304;-65
2024/03/18 03:42:22;;;;;;;9.35;8.32;;;11.80;91.70;;;;;;10198126;28;20782;-67
2024/03/18 03:47:25;;;;;;;10.25;8.85;;;11.80;91.40;;;;;;10198022;28;20229;-65
2024/03/18 03:52:27;;;;;;;11.35;9.52;;;11.80;91.30;;;;;;10196884;28;20238;-63
2024/03/18 03:57:31;;;;;;;12.05;9.88;;;11.80;91.40;;;;;;10198637;28;20240;-66
2024/03/18 04:02:34;;;;;;;12.63;10.02;;;11.80;91.20;;;;;;10199138;28;20241;-66
2024/03/18 04:07:37;;;;;;;12.75;10.35;;;11.80;91.80;;;;;;10197848;28;20229;-65
2024/03/18 04:12:41;;;;;;;13.35;11.90;;;11.80;91.50;;;;;;10196246;28;20280;-65
2024/03/18 04:17:43;;;;;;;12.50;11.13;;;11.80;91.70;;;;;;10198102;28;20279;-64
2024/03/18 04:22:47;;;;;;;16.10;11.80;;;11.80;91.40;;;;;;10197220;28;20233;-64
2024/03/18 04:27:51;;;;;;;14.50;12.18;;;11.80;91.70;;;;;;10195132;28;20888;-66
2024/03/18 04:32:54;;;;;;;13.65;12.25;;;11.80;91.80;;;;;;10194879;28;20268;-65
2024/03/18 04:37:57;;;;;;;15.48;13.13;;;11.80;91.80;;;;;;10196858;28;21475;-62
2024/03/18 04:43:01;;;;;;;14.35;12.85;;;11.80;91.70;;;;;;10195755;28;20265;-63
2024/03/18 04:48:04;;;;;;;14.20;12.70;;;11.80;92.00;;;;;;10199266;28;20652;-63
2024/03/18 04:53:07;;;;;;;14.38;12.73;;;11.80;92.20;;;;;;10198403;28;20238;-65
2024/03/18 04:58:11;;;;;;;12.90;11.07;;;11.80;92.10;;;;;;10199426;28;20202;-63
2024/03/18 05:03:13;;;;;;;12.82;10.55;;;11.80;92.00;;;;;;10198133;28;20234;-64
2024/03/18 05:08:16;;;;;;;12.80;11.45;;;11.80;92.20;;;;;;10213084;28;20284;-64
2024/03/18 05:13:20;;;;;;;12.93;11.57;;;11.80;92.20;;;;;;10218174;28;20713;-64
2024/03/18 05:18:23;;;;;;;11.02;9.40;;;11.80;92.20;;;;;;10213425;28;20206;-65
2024/03/18 05:23:25;;;;;;;10.00;9.00;;;11.80;92.80;;;;;;10219565;28;20229;-64
2024/03/18 05:28:29;;;;;;;10.57;9.40;;;11.90;92.70;;;;;;10216842;28;20272;-65
2024/03/18 05:33:32;;;;;;;12.55;11.25;;;11.90;92.60;;;;;;10219956;28;20316;-65
2024/03/18 05:38:34;;;;;;;16.97;15.33;;;11.90;92.60;;;;;;10217157;28;20436;-69
2024/03/18 05:43:38;;;;;;;16.73;14.38;;;12.00;94.90;;;;;;10214326;28;20307;-68
2024/03/18 05:48:41;;;;;;;16.50;14.70;;;12.00;93.40;;;;;;10210383;28;20230;-68
2024/03/18 05:53:44;;;;;;;15.70;13.10;;;12.00;93.00;;;;;;10217321;28;20245;-69
2024/03/18 05:58:48;;;;;;;13.95;12.13;;;12.00;92.90;;;;;;10216799;28;20209;-67
2024/03/18 06:03:50;;;;;;;15.82;12.77;;;12.00;92.90;;;;;;10214031;28;20284;-67
2024/03/18 06:08:53;;;;;;;12.50;11.13;;;12.00;93.30;;;;;;10217694;28;20230;-67
2024/03/18 06:13:57;;;;;;;10.48;9.00;;;12.00;92.90;;;;;;10216905;28;20257;-66
2024/03/18 06:19:03;;;;;;;12.68;10.80;;;12.00;92.80;;;;;;10228375;28;20202;-67
2024/03/18 06:24:07;;;;;;;13.40;11.40;;;12.00;92.90;;;;;;10230464;28;20257;-69
2024/03/18 06:29:11;;;;;;;15.38;13.75;;;12.00;92.90;;;;;;10228016;28;20591;-66
2024/03/18 06:34:14;;;;;;;16.45;14.75;;;12.00;92.80;;;;;;10229803;28;21558;-67
2024/03/18 06:39:17;;;;;;;16.08;13.02;;;12.00;92.70;;;;;;10226928;28;20665;-67
2024/03/18 06:44:21;;;;;;;14.63;12.23;;;12.10;92.90;;;;;;10238186;28;20257;-67
2024/03/18 06:49:23;;;;;;;15.45;13.80;;;12.10;92.90;;;;;;10225512;28;20257;-67
2024/03/18 06:54:26;;;;;;;16.08;12.30;;;12.10;92.80;;;;;;10224364;28;21849;-67
2024/03/18 06:59:30;;;;;;;13.68;11.80;;;12.10;93.00;;;;;;10228362;28;20283;-67
2024/03/18 07:04:34;;;;;;;13.52;11.63;;;12.10;92.90;;;;;;10224154;28;20713;-67
2024/03/18 07:09:36;;;;;;;13.85;11.43;;;12.20;92.90;;;;;;10228858;28;21008;-60
2024/03/18 07:14:41;;;;;;;13.75;11.40;;;12.20;92.90;;;;;;10226323;28;20238;-64
2024/03/18 07:19:44;;;;;;;12.27;10.98;;;12.30;93.00;;;;;;10227554;28;21283;-63
2024/03/18 07:24:47;;;;;;;13.70;11.48;;;12.30;93.10;;;;;;10225567;28;20768;-63
2024/03/18 07:29:54;;;;;;;14.10;11.57;;;12.40;93.10;;;;;;10225986;28;20234;-61
2024/03/18 07:34:56;;;;;;;15.82;12.25;;;12.50;93.50;;;;;;10222524;28;20229;-62
2024/03/18 07:39:59;;;;;;;15.77;11.95;;;12.50;93.10;;;;;;10226407;28;20295;-62
2024/03/18 07:45:04;;;;;;;16.20;12.77;;;12.60;93.50;;;;;;10226027;28;20362;-62
2024/03/18 07:50:07;;;;;;;15.15;12.73;;;12.70;93.40;;;;;;10227773;28;20281;-61
2024/03/18 07:55:11;;;;;;;18.95;14.20;;;12.80;93.50;;;;;;10228151;28;20234;-61
2024/03/18 08:00:16;;;;;;;17.83;13.88;;;12.80;93.30;;;;;;10222262;28;20316;-61
2024/03/18 08:05:18;;;;;;;19.00;14.52;;;12.90;93.30;;;;;;10223176;28;20350;-61
2024/03/18 08:10:21;;;;;;;18.17;14.10;;;13.00;93.20;;;;;;10226166;28;20226;-61
2024/03/18 08:15:25;;;;;;;19.15;13.85;;;13.00;93.20;;;;;;10223888;28;20237;-63
2024/03/18 08:20:28;;;;;;;18.65;14.65;;;13.10;93.30;;;;;;10224873;28;20210;-61
2024/03/18 08:25:31;;;;;;;15.95;13.90;;;13.10;93.30;;;;;;10221317;28;22105;-63
2024/03/18 08:30:35;;;;;;;16.15;13.18;;;13.20;93.40;;;;;;10227160;28;20234;-61
2024/03/18 08:35:38;;;;;;;15.95;12.35;;;13.20;93.40;;;;;;10223649;28;20229;-66
2024/03/18 08:40:40;;;;;;;14.82;13.05;;;13.30;93.60;;;;;;10222455;28;20213;-66
2024/03/18 08:45:51;;;;;;;13.85;11.85;;;13.30;93.40;;;;;;10218912;28;21648;-65
2024/03/18 08:50:54;;;;;;;14.50;12.52;;;13.40;93.60;;;;;;10219592;28;20230;-65
2024/03/18 08:55:56;;;;;;;17.05;13.48;;;13.50;93.60;;;;;;10222779;28;20210;-65
2024/03/18 09:01:01;;;;;;;16.38;13.57;;;13.50;93.60;;;;;;10222173;28;20287;-65
2024/03/18 09:06:05;;;;;;;19.17;14.57;;;13.50;93.80;;;;;;10220164;28;20214;-65
2024/03/18 09:11:07;;;;;;;19.55;15.50;;;13.50;94.20;;;;;;10218638;28;20230;-65
2024/03/18 09:16:11;;;;;;;16.10;14.40;;;13.50;94.10;;;;;;10221592;28;20237;-66
2024/03/18 09:21:14;;;;;;;19.42;16.30;;;13.40;94.20;;;;;;10220468;28;21584;-66
2024/03/18 09:26:16;;;;;;;18.73;15.77;;;13.50;94.10;;;;;;10219722;28;20214;-67
2024/03/18 09:31:20;;;;;;;17.40;15.60;;;13.60;94.00;;;;;;10220576;28;20272;-65
2024/03/18 09:36:23;;;;;;;18.55;16.20;;;13.60;94.30;;;;;;10218399;28;20210;-67
2024/03/18 09:41:28;;;;;;;19.42;15.95;;;13.70;94.30;;;;;;10220180;28;20355;-65
2024/03/18 09:46:32;;;;;;;17.77;13.48;;;13.80;94.60;;;;;;10215806;28;20210;-64
2024/03/18 09:51:38;;;;;;;17.33;13.05;;;13.90;94.40;;;;;;10217112;28;20234;-67
2024/03/18 09:56:41;;;;;;;14.68;13.15;;;14.10;94.00;;;;;;10228539;28;20213;-66
2024/03/18 10:01:45;;;;;;;15.10;11.88;;;14.20;93.90;;;;;;10228414;28;20307;-67
2024/03/18 10:06:48;;;;;;;15.55;12.52;;;14.20;93.70;;;;;;10228999;28;20256;-67
2024/03/18 10:11:50;;;;;;;13.82;12.43;;;14.30;93.60;;;;;;10226389;28;20237;-66
2024/03/18 10:16:56;;;;;;;13.43;11.27;;;14.30;93.60;;;;;;10228031;28;21462;-66
2024/03/18 10:21:59;;;;;;;14.57;11.25;;;14.40;93.50;;;;;;10227673;28;20238;-66
2024/03/18 10:27:02;;;;;;;13.73;10.60;;;14.40;93.40;;;;;;10228802;28;20213;-67
2024/03/18 10:32:15;;;;;;;11.07;9.05;;;14.50;93.30;;;;;;10305201;28;20257;-65
2024/03/18 10:37:22;;;;;;;11.82;9.82;;;14.50;93.30;;;;;;10295800;28;20237;-65
2024/03/18 10:42:31;;;;;;;10.52;9.18;;;14.60;93.20;;;;;;10282001;28;20847;-69
2024/03/18 10:47:37;;;;;;;11.05;8.40;;;14.60;92.90;;;;;;10302796;28;20279;-64
2024/03/18 10:52:40;;;;;;;13.70;8.95;;;14.70;92.60;;;;;;10308368;28;20234;-64
2024/03/18 10:57:43;;;;;;;14.27;9.52;;;14.70;92.60;;;;;;10311359;28;20673;-66
2024/03/18 11:02:56;;;;;;;13.15;10.38;;;14.70;92.50;;;;;;10286899;28;20233;-64
2024/03/18 11:08:00;;;;;;;14.70;11.27;;;14.70;92.40;;;;;;10307454;28;20241;-64
2024/03/18 11:13:10;;;;;;;13.90;10.98;;;14.60;92.30;;;;;;10278054;28;22006;-68
2024/03/18 11:18:18;;;;;;;13.77;10.88;;;14.50;92.50;;;;;;10297005;28;20283;-68
2024/03/18 11:23:22;;;;;;;10.32;7.80;;;14.60;92.70;;;;;;10305682;28;20238;-66
2024/03/18 11:28:33;;;;;;;10.00;6.50;;;14.70;92.60;;;;;;10312402;28;20257;-65
2024/03/18 11:33:41;;;;;;;11.88;7.40;;;14.90;92.40;;;;;;10297100;28;20241;-65
2024/03/18 11:38:44;;;;;;;11.75;8.68;;;15.10;92.30;;;;;;10314556;28;20603;-65
2024/03/18 11:43:49;;;;;;;9.73;7.60;;;15.30;92.10;;;;;;10300471;28;20384;-65
2024/03/18 11:49:06;;;;;;;11.20;7.70;;;15.40;92.10;;;;;;10288829;28;21447;-66
2024/03/18 11:54:09;;;;;;;11.15;8.23;;;15.40;91.70;;;;;;10300320;28;20250;-65
2024/03/18 11:59:14;;;;;;;10.57;7.13;;;15.40;91.80;;;;;;10302312;28;20256;-66
2024/03/18 12:04:20;;;;;;;12.90;7.68;;;15.50;92.00;;;;;;10297557;28;20307;-66
2024/03/18 12:09:26;;;;;;;9.82;6.57;;;15.50;91.90;;;;;;10268644;28;20311;-64
2024/03/18 12:14:31;;;;;;;8.77;6.75;;;15.50;91.70;;;;;;10270723;28;20256;-69
2024/03/18 12:19:37;;;;;;;8.55;6.50;;;15.80;91.60;;;;;;10279329;28;20345;-66
2024/03/18 12:29:59;;;;;;;14.43;11.20;;;15.70;91.60;;;;;;10259449;28;20771;-70
2024/03/18 12:35:04;;;;;;;13.25;10.40;;;15.60;91.50;;;;;;10244975;28;20229;-70
2024/03/18 12:40:08;;;;;;;13.25;9.23;;;15.50;91.70;;;;;;10259647;28;21546;-67
2024/03/18 12:45:12;;;;;;;8.27;6.80;;;15.50;91.60;;;;;;10247505;28;20360;-69
2024/03/18 12:50:18;;;;;;;12.10;6.97;;;15.60;91.40;;;;;;10247807;28;20256;-69
2024/03/18 12:55:20;;;;;;;9.55;8.10;;;16.00;91.00;;;;;;10244888;28;20260;-68
2024/03/18 13:00:23;;;;;;;12.65;8.80;;;16.30;90.50;;;;;;10255550;28;21248;-69
2024/03/18 13:05:27;;;;;;;18.05;9.52;;;16.40;90.40;;;;;;10232015;28;20284;-71
2024/03/18 13:10:30;;;;;;;10.93;9.00;;;16.50;90.40;;;;;;10245643;28;20234;-71
2024/03/18 13:15:35;;;;;;;12.90;10.75;;;16.30;90.60;;;;;;10281496;28;20316;-67
2024/03/18 13:20:40;;;;;;;13.35;10.73;;;16.20;90.20;;;;;;10289671;28;20887;-68
2024/03/18 13:25:43;;;;;;;15.20;12.43;;;16.10;90.40;;;;;;10266194;28;20593;-69
2024/03/18 13:30:46;;;;;;;16.52;13.73;;;16.70;90.20;;;;;;10271380;28;20225;-67
2024/03/18 13:35:51;;;;;;;15.35;13.23;;;16.60;90.30;;;;;;10255344;28;20317;-68
2024/03/18 13:40:55;;;;;;;16.55;14.07;;;16.50;90.10;;;;;;10264123;28;20260;-70
2024/03/18 13:45:58;;;;;;;22.45;15.07;;;16.30;90.20;;;;;;10250787;28;20218;-68
2024/03/18 13:51:02;;;;;;;20.13;15.60;;;16.10;90.20;;;;;;10268036;28;20769;-67
2024/03/18 13:56:05;;;;;;;19.83;15.93;;;16.00;90.20;;;;;;10282519;28;20301;-66
2024/03/18 14:01:12;;;;;;;19.70;15.65;;;15.80;90.30;;;;;;10283457;28;20316;-67
2024/03/18 14:06:17;;;;;;;23.50;17.27;;;15.60;90.40;;;;;;10289530;28;20287;-67
2024/03/18 14:11:20;;;;;;;23.27;17.45;;;15.40;90.40;;;;;;10293756;28;20257;-67
2024/03/18 14:16:23;;;;;;;22.92;16.63;;;15.30;90.50;;;;;;10295212;28;20320;-68
2024/03/18 14:21:27;;;;;;;23.67;16.20;;;15.10;90.60;;;;;;10286516;28;20257;-66
2024/03/18 14:26:31;;;;;;;21.15;16.52;;;15.10;90.60;;;;;;10282728;28;20305;-66
2024/03/18 14:31:34;;;;;;;23.40;17.73;;;15.00;90.80;;;;;;10282455;28;20297;-66
2024/03/18 14:36:38;;;;;;;25.58;17.33;;;15.00;90.90;;;;;;10279175;28;20333;-65
2024/03/18 14:41:43;;;;;;;25.23;20.45;;;15.00;90.90;;;;;;10293378;28;20336;-66
2024/03/18 14:46:46;;;;;;;27.73;19.02;;;15.00;90.90;;;;;;10292235;28;20241;-70
2024/03/18 14:51:49;;;;;;;26.83;18.55;;;15.00;90.90;;;;;;10286560;28;20348;-68
2024/03/18 14:56:52;;;;;;;26.10;18.63;;;15.10;91.00;;;;;;10302534;28;20284;-67
2024/03/18 15:01:55;;;;;;;21.60;16.83;;;15.20;90.90;;;;;;10274623;28;20265;-65
2024/03/18 15:06:59;;;;;;;24.00;17.85;;;15.40;90.50;;;;;;10263592;28;20275;-68
2024/03/18 15:12:01;;;;;;;22.90;15.88;;;15.50;90.40;;;;;;10264910;28;20299;-69
2024/03/18 15:17:07;;;;;;;19.70;13.63;;;15.60;90.70;;;;;;10252833;28;20209;-65
2024/03/18 15:22:11;;;;;;;21.80;14.85;;;15.70;90.30;;;;;;10256102;28;20229;-67
2024/03/18 15:32:34;;;;;;;18.73;13.52;;;15.90;90.40;;;;;;10247980;28;20288;-64
2024/03/18 15:37:39;;;;;;;20.35;13.25;;;16.10;90.20;;;;;;10227704;28;20236;-61
2024/03/18 15:42:43;;;;;;;16.27;12.02;;;16.10;90.00;;;;;;10227521;28;20234;-63
2024/03/18 15:47:45;;;;;;;15.60;12.13;;;16.00;90.10;;;;;;10229023;28;20214;-62
2024/03/18 15:52:50;;;;;;;16.80;11.80;;;16.00;90.00;;;;;;10230129;28;20233;-62
2024/03/18 15:57:53;;;;;;;16.10;10.77;;;16.00;90.00;;;;;;10230299;28;20240;-63
2024/03/18 16:02:58;;;;;;;12.88;8.65;;;16.00;90.20;;;;;;10229921;28;20238;-62
2024/03/18 16:08:03;;;;;;;12.68;7.90;;;16.10;90.40;;;;;;10242190;28;20209;-64
2024/03/18 16:13:05;;;;;;;10.93;7.57;;;16.20;89.20;;;;;;10229911;28;20233;-63
2024/03/18 16:18:08;;;;;;;12.57;7.57;;;16.10;89.20;;;;;;10228492;28;20210;-64
2024/03/18 16:23:12;;;;;;;9.27;7.20;;;16.00;88.80;;;;;;10229985;28;20276;-63
2024/03/18 16:28:15;;;;;;;9.25;6.47;;;16.00;89.40;;;;;;10222366;28;20214;-62
2024/03/18 16:33:17;;;;;;;9.68;6.25;;;15.90;89.40;;;;;;10228464;28;20234;-63
2024/03/18 16:38:21;;;;;;;9.13;5.97;;;15.80;88.30;;;;;;10250988;28;20295;-70
2024/03/18 16:43:24;;;;;;;11.68;5.95;;;15.70;88.50;;;;;;10267034;28;20242;-66
2024/03/18 16:48:26;;;;;;;8.10;5.93;;;15.50;88.70;;;;;;10270727;28;20294;-69
2024/03/18 16:53:30;;;;;;;10.35;5.35;;;15.40;89.10;;;;;;10269353;28;20708;-67
2024/03/18 16:58:33;;;;;;;8.82;5.70;;;15.30;89.00;;;;;;10260493;28;20255;-68
2024/03/18 17:03:36;;;;;;;10.27;5.60;;;15.30;89.20;;;;;;10276667;28;20772;-68
2024/03/18 17:08:40;;;;;;;8.52;4.72;;;15.30;89.30;;;;;;10285713;28;20289;-68
2024/03/18 17:13:42;;;;;;;8.50;5.18;;;15.20;89.20;;;;;;10285042;28;20317;-67
2024/03/18 17:18:45;;;;;;;7.03;5.28;;;15.20;89.40;;;;;;10291494;28;20832;-67
2024/03/18 17:23:49;;;;;;;9.60;6.20;;;15.10;89.20;;;;;;10292387;28;21352;-65
2024/03/18 17:28:52;;;;;;;8.38;6.10;;;15.10;89.50;;;;;;10296266;28;20922;-66
2024/03/18 17:33:55;;;;;;;9.13;5.90;;;15.00;89.50;;;;;;10300588;28;20319;-65
2024/03/18 17:38:59;;;;;;;11.43;7.82;;;15.00;89.60;;;;;;10292023;28;20276;-68
2024/03/18 17:44:01;;;;;;;9.50;5.97;;;14.90;89.50;;;;;;10296125;28;20737;-67
2024/03/18 17:49:05;;;;;;;9.95;5.97;;;14.90;89.60;;;;;;10300922;28;20202;-65
2024/03/18 17:54:10;;;;;;;10.98;6.10;;;14.80;89.60;;;;;;10296896;28;20712;-65
2024/03/18 17:59:14;;;;;;;10.30;6.25;;;14.80;89.70;;;;;;10297980;28;20290;-67
2024/03/18 18:04:16;;;;;;;8.77;6.05;;;14.80;89.70;;;;;;10265955;28;20438;-70
2024/03/18 18:09:21;;;;;;;8.10;5.45;;;14.80;89.40;;;;;;10260830;28;21510;-67
2024/03/18 18:14:24;;;;;;;9.57;6.05;;;14.80;89.90;;;;;;10291503;28;21053;-69
2024/03/18 18:19:29;;;;;;;7.47;5.43;;;14.70;90.00;;;;;;10301773;28;20693;-69
2024/03/18 18:24:33;;;;;;;8.77;5.70;;;14.60;90.10;;;;;;10294399;28;20365;-67
2024/03/18 18:29:36;;;;;;;10.07;6.10;;;14.50;90.10;;;;;;10296477;28;20291;-67
2024/03/18 18:34:42;;;;;;;13.13;7.13;;;14.40;90.10;;;;;;10287559;28;20308;-68
2024/03/18 18:39:46;;;;;;;9.02;6.63;;;14.30;90.20;;;;;;10291081;28;20809;-65
2024/03/18 18:44:49;;;;;;;11.50;6.53;;;14.30;90.50;;;;;;10286953;28;21277;-66
2024/03/18 18:49:52;;;;;;;11.10;6.35;;;14.20;90.20;;;;;;10275423;28;20298;-66
2024/03/18 18:54:56;;;;;;;11.00;7.00;;;14.10;90.10;;;;;;10251765;28;20229;-70
2024/03/18 19:00:00;;;;;;;11.40;7.20;;;14.00;90.20;;;;;;10236057;28;20237;-69
2024/03/18 19:05:05;;;;;;;12.45;6.93;;;13.90;90.20;;;;;;10248580;28;20653;-70
2024/03/18 19:10:11;;;;;;;13.38;6.82;;;13.90;90.30;;;;;;10224921;28;20218;-71
2024/03/18 19:15:15;;;;;;;11.88;7.47;;;13.80;90.30;;;;;;10228351;28;20225;-70
2024/03/18 19:20:18;;;;;;;13.02;7.82;;;13.80;90.40;;;;;;10221958;28;20292;-70
2024/03/18 19:25:23;;;;;;;13.55;8.60;;;13.80;90.40;;;;;;10221895;28;20316;-70
2024/03/18 19:30:26;;;;;;;12.77;8.38;;;13.70;90.50;;;;;;10216216;28;20237;-72
2024/03/18 19:35:28;;;;;;;11.10;8.27;;;13.70;90.50;;;;;;10224061;28;21454;-67
2024/03/18 19:40:32;;;;;;;10.80;8.45;;;13.60;90.60;;;;;;10226376;28;20226;-67
2024/03/18 19:45:35;;;;;;;14.68;9.98;;;13.50;90.60;;;;;;10224721;28;20241;-63
2024/03/18 19:50:38;;;;;;;12.38;9.45;;;13.40;90.60;;;;;;10232032;28;20963;-62
2024/03/18 19:55:42;;;;;;;17.50;9.05;;;13.40;90.60;;;;;;10227010;28;20233;-69
2024/03/18 20:00:50;;;;;;;16.65;10.63;;;13.30;90.70;;;;;;10225987;28;20347;-61
2024/03/18 20:05:53;;;;;;;16.33;9.90;;;13.20;90.70;;;;;;10227353;28;20291;-61
2024/03/18 20:10:57;;;;;;;16.00;12.10;;;13.10;90.90;;;;;;10222741;28;20230;-60
2024/03/18 20:16:01;;;;;;;19.33;12.73;;;13.10;90.80;;;;;;10226788;28;20210;-60
2024/03/18 20:21:04;;;;;;;15.45;11.65;;;13.00;90.70;;;;;;10234072;28;20234;-68
2024/03/18 20:26:09;;;;;;;21.13;13.57;;;13.00;90.70;;;;;;10231311;28;20298;-73
2024/03/18 20:31:12;;;;;;;18.90;12.75;;;12.90;90.80;;;;;;10225817;28;20233;-70
2024/03/18 20:36:15;;;;;;;20.05;12.27;;;12.90;90.80;;;;;;10221531;28;20551;-70
2024/03/18 20:41:20;;;;;;;17.77;11.65;;;12.80;90.80;;;;;;10223414;28;20228;-72
2024/03/18 20:46:23;;;;;;;17.75;11.73;;;12.80;90.90;;;;;;10224459;28;21419;-75
2024/03/18 20:51:26;;;;;;;20.08;12.27;;;12.80;90.90;;;;;;10224970;28;21679;-70
2024/03/18 20:56:34;;;;;;;20.45;12.57;;;12.70;90.80;;;;;;10226453;28;20302;-72
2024/03/18 21:01:38;;;;;;;21.73;13.90;;;12.70;90.80;;;;;;10226330;28;20230;-74
2024/03/18 21:06:41;;;;;;;22.38;12.70;;;12.70;91.20;;;;;;10225329;28;20214;-73
2024/03/18 21:11:45;;;;;;;19.45;13.45;;;12.70;90.90;;;;;;10227519;28;20229;-70
2024/03/18 21:16:48;;;;;;;24.23;14.02;;;12.70;91.00;;;;;;10224697;28;20276;-70
2024/03/18 21:21:51;;;;;;;21.85;14.02;;;12.70;91.00;;;;;;10225379;28;20823;-74
2024/03/18 21:26:55;;;;;;;18.70;12.98;;;12.70;91.00;;;;;;10223907;28;20986;-72
2024/03/18 21:31:57;;;;;;;18.35;13.65;;;12.70;91.00;;;;;;10224333;28;20779;-72
2024/03/18 21:37:00;;;;;;;21.13;13.95;;;12.70;91.00;;;;;;10226968;28;20213;-70
2024/03/18 21:42:05;;;;;;;20.08;13.68;;;12.70;91.10;;;;;;10220978;28;20291;-73
2024/03/18 21:47:07;;;;;;;19.00;13.73;;;12.70;91.10;;;;;;10230017;28;20264;-69
2024/03/18 21:52:10;;;;;;;18.88;13.45;;;12.70;91.10;;;;;;10243578;28;20242;-65
2024/03/18 21:57:14;;;;;;;20.95;14.15;;;12.70;91.10;;;;;;10242276;28;20263;-72
2024/03/18 22:02:17;;;;;;;26.55;14.85;;;12.70;91.20;;;;;;10241897;28;20214;-72
2024/03/18 22:07:20;;;;;;;20.80;14.18;;;12.60;91.10;;;;;;10241448;28;20299;-74
2024/03/18 22:12:25;;;;;;;21.38;14.65;;;12.60;91.10;;;;;;10235233;28;20226;-71
2024/03/18 22:17:28;;;;;;;18.25;12.90;;;12.60;91.20;;;;;;10238582;28;20238;-73
2024/03/18 22:22:30;;;;;;;20.15;13.15;;;12.60;91.30;;;;;;10235787;28;20222;-74
2024/03/18 22:27:35;;;;;;;27.67;17.45;;;12.60;91.40;;;;;;10238611;28;20218;-67
2024/03/18 22:32:38;;;;;;;31.40;18.13;;;12.60;91.30;;;;;;10241508;28;20250;-72
2024/03/18 22:37:40;;;;;;;26.45;16.25;;;12.60;91.40;;;;;;10251817;28;20236;-74
2024/03/18 22:42:44;;;;;;;17.92;13.60;;;12.60;91.30;;;;;;10241522;28;21447;-71
2024/03/18 22:47:48;;;;;;;19.27;12.45;;;12.50;91.40;;;;;;10239812;28;20292;-73
2024/03/18 22:52:51;;;;;;;19.20;13.07;;;12.50;91.50;;;;;;10231281;28;20230;-72
2024/03/18 22:57:55;;;;;;;18.10;13.23;;;12.50;91.60;;;;;;10231697;28;20654;-72
2024/03/18 23:02:59;;;;;;;19.05;13.77;;;12.50;91.60;;;;;;10231327;28;20225;-74
2024/03/18 23:08:02;;;;;;;23.05;14.82;;;12.40;91.60;;;;;;10230423;28;20234;-72
2024/03/18 23:13:06;;;;;;;21.95;13.20;;;12.40;91.60;;;;;;10232199;28;20230;-72
2024/03/18 23:18:08;;;;;;;22.40;13.85;;;12.40;91.70;;;;;;10258028;28;20755;-70
2024/03/18 23:23:12;;;;;;;17.25;13.60;;;12.30;91.60;;;;;;10235782;28;20753;-71
2024/03/18 23:28:16;;;;;;;23.88;16.20;;;12.30;91.60;;;;;;10235138;28;20341;-72
2024/03/18 23:33:18;;;;;;;25.15;15.80;;;12.30;91.80;;;;;;10232999;28;20234;-73
2024/03/18 23:38:21;;;;;;;22.38;14.75;;;12.30;91.70;;;;;;10229448;28;20291;-72
2024/03/18 23:43:25;;;;;;;21.08;13.90;;;12.30;91.70;;;;;;10224995;28;20234;-72
2024/03/18 23:48:28;;;;;;;24.17;15.02;;;12.30;91.70;;;;;;10227139;28;20210;-69
2024/03/18 23:53:30;;;;;;;20.30;14.80;;;12.20;91.80;;;;;;10224683;28;20242;-71
2024/03/18 23:58:35;;;;;;;19.80;15.00;;;12.20;92.00;;;;;;10223823;28;20210;-73
